createdAt,value
2022-10-08T00:00:28.058Z,5.40
2022-10-08T00:01:28.018Z,6.50
2022-10-08T00:02:28.027Z,6.30
2022-10-08T00:03:27.917Z,6.90
2022-10-08T00:04:28.002Z,6.50
2022-10-08T00:05:27.919Z,6.60
2022-10-08T00:06:27.197Z,5.80
2022-10-08T00:07:27.877Z,6.70
2022-10-08T00:08:27.718Z,6.30
2022-10-08T00:09:28.034Z,6.40
2022-10-08T00:10:27.757Z,6.60
2022-10-08T00:11:27.943Z,6.10
2022-10-08T00:12:27.790Z,6.40
2022-10-08T00:13:28.100Z,5.90
2022-10-08T00:14:27.807Z,6.00
2022-10-08T00:15:27.867Z,6.70
2022-10-08T00:16:28.111Z,5.50
2022-10-08T00:17:28.488Z,6.70
2022-10-08T00:18:27.857Z,7.20
2022-10-08T00:19:27.798Z,6.10
2022-10-08T00:20:27.767Z,7.30
2022-10-08T00:21:27.578Z,6.40
2022-10-08T00:22:27.777Z,6.60
2022-10-08T00:23:27.657Z,7.40
2022-10-08T00:24:28.037Z,6.30
2022-10-08T00:25:27.638Z,6.80
2022-10-08T00:26:27.807Z,7.90
2022-10-08T00:27:27.578Z,6.70
2022-10-08T00:28:27.784Z,6.90
2022-10-08T00:29:27.617Z,7.30
2022-10-08T00:30:27.778Z,6.50
2022-10-08T00:31:27.852Z,5.90
2022-10-08T00:32:27.718Z,7.00
2022-10-08T00:33:27.757Z,7.60
2022-10-08T00:34:27.637Z,6.10
2022-10-08T00:35:27.558Z,6.40
2022-10-08T00:36:26.892Z,6.60
2022-10-08T00:37:27.606Z,5.80
2022-10-08T00:38:27.488Z,7.20
2022-10-08T00:39:27.607Z,6.70
2022-10-08T00:40:27.418Z,5.80
2022-10-08T00:41:27.629Z,7.50
2022-10-08T00:42:27.500Z,6.90
2022-10-08T00:43:27.637Z,6.60
2022-10-08T00:44:27.520Z,5.50
2022-10-08T00:45:27.645Z,7.00
2022-10-08T00:46:27.487Z,6.80
2022-10-08T00:47:27.547Z,7.10
2022-10-08T00:48:27.536Z,6.00
2022-10-08T00:49:27.517Z,5.40
2022-10-08T00:50:27.527Z,5.40
2022-10-08T00:51:27.267Z,6.00
2022-10-08T00:52:26.650Z,6.70
2022-10-08T00:53:27.320Z,6.00
2022-10-08T00:54:26.627Z,6.50
2022-10-08T00:55:27.293Z,6.30
2022-10-08T00:56:27.498Z,6.20
2022-10-08T00:57:27.321Z,5.90
2022-10-08T00:58:27.368Z,6.60
2022-10-08T00:59:27.257Z,6.10
2022-10-08T01:00:27.404Z,5.60
2022-10-08T01:01:26.669Z,5.50
2022-10-08T01:02:27.477Z,5.40
2022-10-08T01:03:27.427Z,6.00
2022-10-08T01:04:27.317Z,6.10
2022-10-08T01:05:27.278Z,5.40
2022-10-08T01:06:27.117Z,7.00
2022-10-08T01:07:27.398Z,5.40
2022-10-08T01:08:27.137Z,5.70
2022-10-08T01:09:27.368Z,5.00
2022-10-08T01:10:27.188Z,5.00
2022-10-08T01:11:27.286Z,7.20
2022-10-08T01:12:27.207Z,6.10
2022-10-08T01:13:27.218Z,6.70
2022-10-08T01:14:27.188Z,7.30
2022-10-08T01:15:27.198Z,7.10
2022-10-08T01:16:27.410Z,5.70
2022-10-08T01:17:27.199Z,5.90
2022-10-08T01:18:27.118Z,7.40
2022-10-08T01:19:26.378Z,7.00
2022-10-08T01:20:27.178Z,6.30
2022-10-08T01:21:27.018Z,6.60
2022-10-08T01:22:27.168Z,6.30
2022-10-08T01:23:27.009Z,5.60
2022-10-08T01:24:27.167Z,6.50
2022-10-08T01:25:26.986Z,6.40
2022-10-08T01:26:27.207Z,6.70
2022-10-08T01:27:26.998Z,7.10
2022-10-08T01:28:27.243Z,7.30
2022-10-08T01:29:27.008Z,6.80
2022-10-08T01:30:27.058Z,5.80
2022-10-08T01:31:26.994Z,5.50
2022-10-08T01:32:27.097Z,7.50
2022-10-08T01:33:27.017Z,6.70
2022-10-08T01:34:27.028Z,6.40
2022-10-08T01:35:26.209Z,6.60
2022-10-08T01:36:26.776Z,7.10
2022-10-08T01:37:26.987Z,6.80
2022-10-08T01:38:26.818Z,7.00
2022-10-08T01:39:26.197Z,7.40
2022-10-08T01:40:26.816Z,6.70
2022-10-08T01:41:26.977Z,6.80
2022-10-08T01:42:26.799Z,7.60
2022-10-08T01:43:26.897Z,7.60
2022-10-08T01:44:26.918Z,5.80
2022-10-08T01:45:27.000Z,7.80
2022-10-08T01:46:26.778Z,8.40
2022-10-08T01:47:26.877Z,7.20
2022-10-08T01:48:26.777Z,6.80
2022-10-08T01:49:26.948Z,6.50
2022-10-08T01:50:26.779Z,7.50
2022-10-08T01:51:26.728Z,5.70
2022-10-08T01:52:26.878Z,6.00
2022-10-08T01:53:26.617Z,5.60
2022-10-08T01:54:26.897Z,6.90
2022-10-08T01:55:26.657Z,6.10
2022-10-08T01:56:26.777Z,6.20
2022-10-08T01:57:26.629Z,7.00
2022-10-08T01:58:26.027Z,6.00
2022-10-08T01:59:26.657Z,5.90
2022-10-08T02:00:26.877Z,7.20
2022-10-08T02:01:26.658Z,5.70
2022-10-08T02:02:26.752Z,6.00
2022-10-08T02:03:26.637Z,5.40
2022-10-08T02:04:26.758Z,6.60
2022-10-08T02:05:26.691Z,7.00
2022-10-08T02:06:26.457Z,5.70
2022-10-08T02:07:26.597Z,6.70
2022-10-08T02:08:25.857Z,7.40
2022-10-08T02:09:26.627Z,6.50
2022-10-08T02:10:26.461Z,6.20
2022-10-08T02:11:26.677Z,5.90
2022-10-08T02:12:26.497Z,6.90
2022-10-08T02:13:26.659Z,6.40
2022-10-08T02:14:26.579Z,7.30
2022-10-08T02:15:26.667Z,6.70
2022-10-08T02:16:26.591Z,5.90
2022-10-08T02:17:26.627Z,5.90
2022-10-08T02:18:26.497Z,6.40
2022-10-08T02:19:26.657Z,6.80
2022-10-08T02:20:26.478Z,7.50
2022-10-08T02:21:26.287Z,8.40
2022-10-08T02:22:26.467Z,7.10
2022-10-08T02:23:26.309Z,7.20
2022-10-08T02:24:25.668Z,6.60
2022-10-08T02:25:26.397Z,7.90
2022-10-08T02:26:26.477Z,7.00
2022-10-08T02:27:26.477Z,5.60
2022-10-08T02:28:26.576Z,5.90
2022-10-08T02:29:26.307Z,8.20
2022-10-08T02:30:26.397Z,6.70
2022-10-08T02:31:26.417Z,6.80
2022-10-08T02:32:26.458Z,7.80
2022-10-08T02:33:26.387Z,8.20
2022-10-08T02:34:25.558Z,7.60
2022-10-08T02:35:26.318Z,6.00
2022-10-08T02:36:26.137Z,6.90
2022-10-08T02:37:26.398Z,6.80
2022-10-08T02:38:26.137Z,7.30
2022-10-08T02:39:26.497Z,6.10
2022-10-08T02:40:26.286Z,6.80
2022-10-08T02:41:26.337Z,5.40
2022-10-08T02:42:26.184Z,5.40
2022-10-08T02:43:26.438Z,5.20
2022-10-08T02:44:26.276Z,5.50
2022-10-08T02:45:26.348Z,5.90
2022-10-08T02:46:26.176Z,5.80
2022-10-08T02:47:26.257Z,5.70
2022-10-08T02:48:26.227Z,6.20
2022-10-08T02:49:25.401Z,5.00
2022-10-08T02:50:26.267Z,5.70
2022-10-08T02:51:26.050Z,5.50
2022-10-08T02:52:26.139Z,6.50
2022-10-08T02:53:25.957Z,7.60
2022-10-08T02:54:26.157Z,5.70
2022-10-08T02:55:26.017Z,6.50
2022-10-08T02:56:26.257Z,6.80
2022-10-08T02:57:25.977Z,5.00
2022-10-08T02:58:26.117Z,6.00
2022-10-08T02:59:26.116Z,5.60
2022-10-08T03:00:26.077Z,5.50
2022-10-08T03:01:26.075Z,6.50
2022-10-08T03:02:25.405Z,7.90
2022-10-08T03:03:26.648Z,5.70
2022-10-08T03:04:26.087Z,6.00
2022-10-08T03:05:25.248Z,5.60
2022-10-08T03:06:26.818Z,4.40
2022-10-08T03:07:26.017Z,6.70
2022-10-08T03:08:25.917Z,5.50
2022-10-08T03:09:26.077Z,4.90
2022-10-08T03:10:25.187Z,6.60
2022-10-08T03:11:25.977Z,5.80
2022-10-08T03:12:25.837Z,5.40
2022-10-08T03:13:25.978Z,4.90
2022-10-08T03:14:26.057Z,5.10
2022-10-08T03:15:25.966Z,6.10
2022-10-08T03:16:25.979Z,5.10
2022-10-08T03:17:25.946Z,7.00
2022-10-08T03:18:25.840Z,5.90
2022-10-08T03:19:25.908Z,5.00
2022-10-08T03:20:25.877Z,6.40
2022-10-08T03:21:25.697Z,5.60
2022-10-08T03:22:25.888Z,5.50
2022-10-08T03:23:25.677Z,5.30
2022-10-08T03:24:25.931Z,7.00
2022-10-08T03:25:25.768Z,7.20
2022-10-08T03:26:25.878Z,5.50
2022-10-08T03:27:25.706Z,5.70
2022-10-08T03:28:25.060Z,5.20
2022-10-08T03:29:25.686Z,4.50
2022-10-08T03:30:25.938Z,6.00
2022-10-08T03:31:25.779Z,5.60
2022-10-08T03:32:25.878Z,5.70
2022-10-08T03:33:25.698Z,6.30
2022-10-08T03:34:25.787Z,6.00
2022-10-08T03:35:25.678Z,5.60
2022-10-08T03:36:25.598Z,5.00
2022-10-08T03:37:25.736Z,6.90
2022-10-08T03:38:25.610Z,5.20
2022-10-08T03:39:25.717Z,5.20
2022-10-08T03:40:25.537Z,6.60
2022-10-08T03:41:25.797Z,6.20
2022-10-08T03:42:25.560Z,5.30
2022-10-08T03:43:25.636Z,7.10
2022-10-08T03:44:24.838Z,7.20
2022-10-08T03:45:25.627Z,7.30
2022-10-08T03:46:25.149Z,5.50
2022-10-08T03:47:25.640Z,6.00
2022-10-08T03:48:25.547Z,6.40
2022-10-08T03:49:25.608Z,6.90
2022-10-08T03:50:25.497Z,6.40
2022-10-08T03:51:25.588Z,5.90
2022-10-08T03:52:25.538Z,5.90
2022-10-08T03:53:25.428Z,7.00
2022-10-08T03:54:25.537Z,6.30
2022-10-08T03:55:25.418Z,6.80
2022-10-08T03:56:25.538Z,5.90
2022-10-08T03:57:25.359Z,5.40
2022-10-08T03:58:25.497Z,5.10
2022-10-08T03:59:24.707Z,5.60
2022-10-08T04:00:25.497Z,6.50
2022-10-08T04:01:25.454Z,5.30
2022-10-08T04:02:25.435Z,6.00
2022-10-08T04:03:25.317Z,6.30
2022-10-08T04:04:25.941Z,4.90
2022-10-08T04:05:25.398Z,6.40
2022-10-08T04:06:25.257Z,5.30
2022-10-08T04:07:24.589Z,4.60
2022-10-08T04:08:25.277Z,5.80
2022-10-08T04:09:25.398Z,6.00
2022-10-08T04:10:24.569Z,4.90
2022-10-08T04:11:25.437Z,6.00
2022-10-08T04:12:25.218Z,6.40
2022-10-08T04:13:25.367Z,5.20
2022-10-08T04:14:25.227Z,5.60
2022-10-08T04:15:24.499Z,5.10
2022-10-08T04:16:25.248Z,6.20
2022-10-08T04:17:24.517Z,6.40
2022-10-08T04:18:25.227Z,4.20
2022-10-08T04:19:25.229Z,5.20
2022-10-08T04:20:25.237Z,4.10
2022-10-08T04:21:25.048Z,5.70
2022-10-08T04:22:24.417Z,5.70
2022-10-08T04:23:25.767Z,6.10
2022-10-08T04:24:25.205Z,5.20
2022-10-08T04:25:24.410Z,5.10
2022-10-08T04:26:25.238Z,4.00
2022-10-08T04:27:25.066Z,5.40
2022-10-08T04:28:25.223Z,4.00
2022-10-08T04:29:25.106Z,3.90
2022-10-08T04:30:25.159Z,5.70
2022-10-08T04:31:25.213Z,4.70
2022-10-08T04:32:24.297Z,5.20
2022-10-08T04:33:25.038Z,3.80
2022-10-08T04:34:25.148Z,5.00
2022-10-08T04:35:25.117Z,6.00
2022-10-08T04:36:24.918Z,4.30
2022-10-08T04:37:25.107Z,6.20
2022-10-08T04:38:24.297Z,5.20
2022-10-08T04:39:25.007Z,4.20
2022-10-08T04:40:24.917Z,4.80
2022-10-08T04:41:25.007Z,5.30
2022-10-08T04:42:24.218Z,3.80
2022-10-08T04:43:25.037Z,5.90
2022-10-08T04:44:24.917Z,5.80
2022-10-08T04:45:24.970Z,4.50
2022-10-08T04:46:24.198Z,5.80
2022-10-08T04:47:24.957Z,5.00
2022-10-08T04:48:24.867Z,5.20
2022-10-08T04:49:24.917Z,5.70
2022-10-08T04:50:24.938Z,5.90
2022-10-08T04:51:24.857Z,5.80
2022-10-08T04:52:24.908Z,4.80
2022-10-08T04:53:24.707Z,4.40
2022-10-08T04:54:24.959Z,4.50
2022-10-08T04:55:24.819Z,5.20
2022-10-08T04:56:24.887Z,4.50
2022-10-08T04:57:24.946Z,4.40
2022-10-08T04:58:25.447Z,5.20
2022-10-08T04:59:24.757Z,4.50
2022-10-08T05:00:24.827Z,3.60
2022-10-08T05:01:24.803Z,4.40
2022-10-08T05:02:24.805Z,4.50
2022-10-08T05:03:24.708Z,4.90
2022-10-08T05:04:24.847Z,5.10
2022-10-08T05:05:24.856Z,4.70
2022-10-08T05:06:24.548Z,5.40
2022-10-08T05:07:24.728Z,5.60
2022-10-08T05:08:24.527Z,4.80
2022-10-08T05:09:24.717Z,4.40
2022-10-08T05:10:23.901Z,5.40
2022-10-08T05:11:24.848Z,5.00
2022-10-08T05:12:24.599Z,4.30
2022-10-08T05:13:24.718Z,4.00
2022-10-08T05:14:24.617Z,4.70
2022-10-08T05:15:23.840Z,4.30
2022-10-08T05:16:25.350Z,5.70
2022-10-08T05:17:24.651Z,5.20
2022-10-08T05:18:24.574Z,4.60
2022-10-08T05:19:24.608Z,5.60
2022-10-08T05:20:24.718Z,4.60
2022-10-08T05:21:24.428Z,3.90
2022-10-08T05:22:24.649Z,4.40
2022-10-08T05:23:23.798Z,4.80
2022-10-08T05:24:24.759Z,6.30
2022-10-08T05:25:24.417Z,5.30
2022-10-08T05:26:41.423Z,4.30
2022-10-08T05:27:25.277Z,4.90
2022-10-08T05:28:24.606Z,4.80
2022-10-08T05:29:23.687Z,4.50
2022-10-08T05:30:24.569Z,4.90
2022-10-08T05:31:24.463Z,5.20
2022-10-08T05:32:24.439Z,4.20
2022-10-08T05:33:24.417Z,4.90
2022-10-08T05:34:24.467Z,4.30
2022-10-08T05:35:24.366Z,4.70
2022-10-08T05:36:24.477Z,4.30
2022-10-08T05:37:25.060Z,4.20
2022-10-08T05:38:23.608Z,6.20
2022-10-08T05:39:25.659Z,4.20
2022-10-08T05:40:24.538Z,3.90
2022-10-08T05:41:24.399Z,4.00
2022-10-08T05:42:24.449Z,4.80
2022-10-08T05:43:24.387Z,5.10
2022-10-08T05:44:24.282Z,4.60
2022-10-08T05:45:24.768Z,5.60
2022-10-08T05:46:24.484Z,3.90
2022-10-08T05:47:24.279Z,4.20
2022-10-08T05:48:24.297Z,5.00
2022-10-08T05:49:24.297Z,4.80
2022-10-08T05:50:24.406Z,3.80
2022-10-08T05:51:24.177Z,4.70
2022-10-08T05:52:24.217Z,4.00
2022-10-08T05:53:23.447Z,4.20
2022-10-08T05:54:24.358Z,4.30
2022-10-08T05:55:24.147Z,4.70
2022-10-08T05:56:24.228Z,4.10
2022-10-08T05:57:24.288Z,4.00
2022-10-08T05:58:27.343Z,4.40
2022-10-08T05:59:24.084Z,5.20
2022-10-08T06:00:24.566Z,3.80
2022-10-08T06:01:24.090Z,5.10
2022-10-08T06:02:24.223Z,4.40
2022-10-08T06:03:24.077Z,4.80
2022-10-08T06:04:24.213Z,5.30
2022-10-08T06:05:24.057Z,4.70
2022-10-08T06:06:24.187Z,5.30
2022-10-08T06:07:24.117Z,5.10
2022-10-08T06:08:23.948Z,5.60
2022-10-08T06:09:24.077Z,4.20
2022-10-08T06:10:23.897Z,3.80
2022-10-08T06:11:23.279Z,5.30
2022-10-08T06:12:24.687Z,4.40
2022-10-08T06:13:24.087Z,5.70
2022-10-08T06:14:24.120Z,5.00
2022-10-08T06:15:24.058Z,5.20
2022-10-08T06:16:23.277Z,4.40
2022-10-08T06:17:24.009Z,4.80
2022-10-08T06:18:23.977Z,4.20
2022-10-08T06:19:23.226Z,4.30
2022-10-08T06:20:27.418Z,3.40
2022-10-08T06:21:23.749Z,5.30
2022-10-08T06:22:23.129Z,3.80
2022-10-08T06:23:24.817Z,4.90
2022-10-08T06:24:23.946Z,5.10
2022-10-08T06:25:23.766Z,5.10
2022-10-08T06:26:24.077Z,3.80
2022-10-08T06:27:23.748Z,5.20
2022-10-08T06:28:23.116Z,5.10
2022-10-08T06:29:23.789Z,4.40
2022-10-08T06:30:23.938Z,5.00
2022-10-08T06:31:24.235Z,4.50
2022-10-08T06:32:23.078Z,5.00
2022-10-08T06:33:24.087Z,4.20
2022-10-08T06:34:23.778Z,3.80
2022-10-08T06:35:23.778Z,5.10
2022-10-08T06:36:23.957Z,4.80
2022-10-08T06:37:22.978Z,4.00
2022-10-08T06:38:23.786Z,3.30
2022-10-08T06:39:23.908Z,4.40
2022-10-08T06:40:23.667Z,4.50
2022-10-08T06:41:22.937Z,4.70
2022-10-08T06:42:23.598Z,5.00
2022-10-08T06:43:23.697Z,3.90
2022-10-08T06:44:23.697Z,4.60
2022-10-08T06:45:23.783Z,3.70
2022-10-08T06:46:23.718Z,4.60
2022-10-08T06:47:23.681Z,5.40
2022-10-08T06:48:23.677Z,4.70
2022-10-08T06:49:23.627Z,4.10
2022-10-08T06:50:23.677Z,4.90
2022-10-08T06:51:23.529Z,4.90
2022-10-08T06:52:23.857Z,4.80
2022-10-08T06:53:23.447Z,4.50
2022-10-08T06:54:23.568Z,4.70
2022-10-08T06:55:23.438Z,4.50
2022-10-08T06:56:23.646Z,4.30
2022-10-08T06:57:23.497Z,4.60
2022-10-08T06:58:23.686Z,5.70
2022-10-08T06:59:23.557Z,5.00
2022-10-08T07:00:23.938Z,4.30
2022-10-08T07:01:23.564Z,4.30
2022-10-08T07:02:23.679Z,4.80
2022-10-08T07:03:23.548Z,4.40
2022-10-08T07:04:23.907Z,3.60
2022-10-08T07:05:23.506Z,4.60
2022-10-08T07:06:23.587Z,3.20
2022-10-08T07:07:23.698Z,4.20
2022-10-08T07:08:23.457Z,4.50
2022-10-08T07:09:23.506Z,5.30
2022-10-08T07:10:23.299Z,6.30
2022-10-08T07:11:23.767Z,4.40
2022-10-08T07:12:23.347Z,4.90
2022-10-08T07:13:23.706Z,4.90
2022-10-08T07:14:23.368Z,6.40
2022-10-08T07:15:23.527Z,4.80
2022-10-08T07:16:52.467Z,5.20
2022-10-08T07:17:54.370Z,4.50
2022-10-08T07:18:54.020Z,4.30
2022-10-08T07:19:54.418Z,5.20
2022-10-08T07:20:54.020Z,5.20
2022-10-08T07:21:56.835Z,5.00
2022-10-08T07:22:54.412Z,4.20
2022-10-08T07:23:54.478Z,3.30
2022-10-08T07:24:54.050Z,4.50
2022-10-08T07:25:54.029Z,4.70
2022-10-08T07:26:54.090Z,5.90
2022-10-08T07:27:54.218Z,4.60
2022-10-08T07:28:54.085Z,5.80
2022-10-08T07:29:53.979Z,4.90
2022-10-08T07:30:53.970Z,5.00
2022-10-08T07:31:53.892Z,4.40
2022-10-08T07:32:54.380Z,5.20
2022-10-08T07:33:53.915Z,5.30
2022-10-08T07:34:59.852Z,4.40
2022-10-08T07:35:54.420Z,5.30
2022-10-08T07:36:53.980Z,4.20
2022-10-08T07:37:54.031Z,3.90
2022-10-08T07:38:53.398Z,4.20
2022-10-08T07:39:54.290Z,5.50
2022-10-08T07:40:53.078Z,5.50
2022-10-08T07:41:53.830Z,4.70
2022-10-08T07:42:53.070Z,5.30
2022-10-08T07:43:53.841Z,4.40
2022-10-08T07:44:53.760Z,3.80
2022-10-08T07:45:53.927Z,3.40
2022-10-08T07:46:53.749Z,4.00
2022-10-08T07:47:53.989Z,5.10
2022-10-08T07:48:53.685Z,5.20
2022-10-08T07:49:53.970Z,4.80
2022-10-08T07:50:54.261Z,4.50
2022-10-08T07:51:53.954Z,4.70
2022-10-08T07:52:53.747Z,4.20
2022-10-08T07:53:56.773Z,4.20
2022-10-08T07:54:53.670Z,4.50
2022-10-08T07:55:53.742Z,4.10
2022-10-08T07:56:53.760Z,4.60
2022-10-08T07:57:54.029Z,4.90
2022-10-08T07:58:53.995Z,3.90
2022-10-08T07:59:53.550Z,4.90
2022-10-08T08:00:53.797Z,5.70
2022-10-08T08:01:53.636Z,3.70
2022-10-08T08:02:53.673Z,4.20
2022-10-08T08:03:53.628Z,4.80
2022-10-08T08:04:53.628Z,4.40
2022-10-08T08:05:53.498Z,4.70
2022-10-08T08:06:53.671Z,5.00
2022-10-08T08:07:53.635Z,3.70
2022-10-08T08:08:53.670Z,4.40
2022-10-08T08:09:53.580Z,3.40
2022-10-08T08:10:53.638Z,4.40
2022-10-08T08:11:53.758Z,4.50
2022-10-08T08:12:53.362Z,3.40
2022-10-08T08:13:53.533Z,3.30
2022-10-08T08:14:53.350Z,4.90
2022-10-08T08:15:52.741Z,4.50
2022-10-08T08:16:53.441Z,5.10
2022-10-08T08:17:53.620Z,4.40
2022-10-08T08:18:53.470Z,4.10
2022-10-08T08:19:53.830Z,3.90
2022-10-08T08:20:53.348Z,4.30
2022-10-08T08:21:53.569Z,4.80
2022-10-08T08:22:52.650Z,3.30
2022-10-08T08:23:53.580Z,3.50
2022-10-08T08:24:53.390Z,3.90
2022-10-08T08:25:53.739Z,4.00
2022-10-08T08:26:57.593Z,4.60
2022-10-08T08:27:52.901Z,4.70
2022-10-08T08:28:53.497Z,4.20
2022-10-08T08:29:52.949Z,2.80
2022-10-08T08:30:53.440Z,3.60
2022-10-08T08:31:54.391Z,4.30
2022-10-08T08:32:53.338Z,4.50
2022-10-08T08:33:53.232Z,3.40
2022-10-08T08:34:53.430Z,4.40
2022-10-08T08:35:53.299Z,4.50
2022-10-08T08:36:52.510Z,3.60
2022-10-08T08:37:53.809Z,4.90
2022-10-08T08:38:52.870Z,4.30
2022-10-08T08:39:52.493Z,3.70
2022-10-08T08:40:53.309Z,4.70
2022-10-08T08:41:53.221Z,5.30
2022-10-08T08:42:53.300Z,4.40
2022-10-08T08:43:53.282Z,4.50
2022-10-08T08:44:53.051Z,4.80
2022-10-08T08:45:53.338Z,3.70
2022-10-08T08:46:53.050Z,4.60
2022-10-08T08:47:53.218Z,4.20
2022-10-08T08:48:52.426Z,4.70
2022-10-08T08:49:53.590Z,4.20
2022-10-08T08:50:53.050Z,5.70
2022-10-08T08:51:53.219Z,3.90
2022-10-08T08:52:53.009Z,3.90
2022-10-08T08:53:53.148Z,5.00
2022-10-08T08:54:53.060Z,4.20
2022-10-08T08:55:53.249Z,4.20
2022-10-08T08:56:53.089Z,4.00
2022-10-08T08:57:53.179Z,4.20
2022-10-08T08:58:53.039Z,3.60
2022-10-08T08:59:52.939Z,4.40
2022-10-08T09:00:53.087Z,4.00
2022-10-08T09:01:52.299Z,4.00
2022-10-08T09:02:54.109Z,3.90
2022-10-08T09:03:54.050Z,3.50
2022-10-08T09:04:52.748Z,4.40
2022-10-08T09:05:53.270Z,2.50
2022-10-08T09:06:53.059Z,3.80
2022-10-08T09:07:52.188Z,2.80
2022-10-08T09:08:53.059Z,3.40
2022-10-08T09:09:52.209Z,3.30
2022-10-08T09:10:53.009Z,3.50
2022-10-08T09:11:52.140Z,4.00
2022-10-08T09:12:53.370Z,4.40
2022-10-08T09:13:52.128Z,3.90
2022-10-08T09:14:52.430Z,3.30
2022-10-08T09:15:52.101Z,3.30
2022-10-08T09:16:53.569Z,3.60
2022-10-08T09:17:52.348Z,2.60
2022-10-08T09:18:52.299Z,4.00
2022-10-08T09:19:52.899Z,3.80
2022-10-08T09:20:52.131Z,3.00
2022-10-08T09:21:53.370Z,3.30
2022-10-08T09:22:52.439Z,3.40
2022-10-08T09:23:52.019Z,3.30
2022-10-08T09:24:53.449Z,3.90
2022-10-08T09:25:52.352Z,4.00
2022-10-08T09:26:52.830Z,3.60
2022-10-08T09:27:52.819Z,3.50
2022-10-08T09:28:52.730Z,3.00
2022-10-08T09:29:52.548Z,3.60
2022-10-08T09:30:54.039Z,3.70
2022-10-08T09:31:52.679Z,3.30
2022-10-08T09:32:51.989Z,3.40
2022-10-08T09:33:52.778Z,3.20
2022-10-08T09:34:51.900Z,3.60
2022-10-08T09:35:52.549Z,2.80
2022-10-08T09:36:52.720Z,3.30
2022-10-08T09:37:51.881Z,3.40
2022-10-08T09:38:54.029Z,3.30
2022-10-08T09:39:52.999Z,5.30
2022-10-08T09:40:52.699Z,4.70
2022-10-08T09:41:52.569Z,3.90
2022-10-08T09:42:52.638Z,3.90
2022-10-08T09:43:52.562Z,3.70
2022-10-08T09:44:51.850Z,3.40
2022-10-08T09:45:52.699Z,2.70
2022-10-08T09:46:52.519Z,3.40
2022-10-08T09:47:52.541Z,3.10
2022-10-08T09:48:52.409Z,5.00
2022-10-08T09:49:52.801Z,4.00
2022-10-08T09:50:52.490Z,3.70
2022-10-08T09:51:52.629Z,3.70
2022-10-08T09:52:52.379Z,3.50
2022-10-08T09:53:52.510Z,3.70
2022-10-08T09:54:52.410Z,3.60
2022-10-08T09:55:52.490Z,3.00
2022-10-08T09:56:51.690Z,3.10
2022-10-08T09:57:53.758Z,3.70
2022-10-08T09:58:52.390Z,2.80
2022-10-08T09:59:52.581Z,3.30
2022-10-08T10:00:52.419Z,4.40
2022-10-08T10:01:52.289Z,4.50
2022-10-08T10:02:52.421Z,2.90
2022-10-08T10:03:52.368Z,3.30
2022-10-08T10:04:51.649Z,2.70
2022-10-08T10:05:52.228Z,2.70
2022-10-08T10:06:52.393Z,2.90
2022-10-08T10:07:52.398Z,3.20
2022-10-08T10:08:51.550Z,2.30
2022-10-08T10:09:52.294Z,2.80
2022-10-08T10:10:52.440Z,2.90
2022-10-08T10:11:52.229Z,4.10
2022-10-08T10:12:52.352Z,3.20
2022-10-08T10:13:52.249Z,4.30
2022-10-08T10:14:52.379Z,2.70
2022-10-08T10:15:52.291Z,3.10
2022-10-08T10:16:52.503Z,3.20
2022-10-08T10:17:51.470Z,2.80
2022-10-08T10:18:52.850Z,3.80
2022-10-08T10:19:52.377Z,3.00
2022-10-08T10:20:52.069Z,4.20
2022-10-08T10:21:52.279Z,2.90
2022-10-08T10:22:52.069Z,2.90
2022-10-08T10:23:51.619Z,2.50
2022-10-08T10:24:51.671Z,3.00
2022-10-08T10:25:51.459Z,2.40
2022-10-08T10:26:53.079Z,2.60
2022-10-08T10:27:52.190Z,3.40
2022-10-08T10:28:52.219Z,2.90
2022-10-08T10:29:51.360Z,2.90
2022-10-08T10:30:51.340Z,3.60
2022-10-08T10:31:52.921Z,2.90
2022-10-08T10:32:52.120Z,3.30
2022-10-08T10:33:51.929Z,3.20
2022-10-08T10:34:52.220Z,3.10
2022-10-08T10:35:52.079Z,3.40
2022-10-08T10:36:51.310Z,3.30
2022-10-08T10:37:52.020Z,2.70
2022-10-08T10:38:51.321Z,2.90
2022-10-08T10:39:52.049Z,3.10
2022-10-08T10:40:51.228Z,3.20
2022-10-08T10:41:52.340Z,3.40
2022-10-08T10:42:53.209Z,2.70
2022-10-08T10:43:52.663Z,2.70
2022-10-08T10:44:51.259Z,2.70
2022-10-08T10:45:53.011Z,3.40
2022-10-08T10:46:52.071Z,3.50
2022-10-08T10:47:52.939Z,2.10
2022-10-08T10:48:51.749Z,3.40
2022-10-08T10:49:51.152Z,2.60
2022-10-08T10:50:52.891Z,3.20
2022-10-08T10:51:51.908Z,2.80
2022-10-08T10:52:51.809Z,2.80
2022-10-08T10:53:51.919Z,2.30
2022-10-08T10:54:51.790Z,3.20
2022-10-08T10:55:54.725Z,2.70
2022-10-08T10:56:51.820Z,3.00
2022-10-08T10:57:51.680Z,3.30
2022-10-08T10:58:51.789Z,3.10
2022-10-08T10:59:52.274Z,2.40
2022-10-08T11:00:51.031Z,3.30
2022-10-08T11:01:52.451Z,3.10
2022-10-08T11:02:52.503Z,3.20
2022-10-08T11:03:51.658Z,2.50
2022-10-08T11:04:51.801Z,3.40
2022-10-08T11:05:51.574Z,3.20
2022-10-08T11:06:50.949Z,3.10
2022-10-08T11:07:52.309Z,3.80
2022-10-08T11:08:51.448Z,3.70
2022-10-08T11:09:50.990Z,2.70
2022-10-08T11:10:50.919Z,3.20
2022-10-08T11:11:52.210Z,3.20
2022-10-08T11:12:52.419Z,3.90
2022-10-08T11:13:52.742Z,3.10
2022-10-08T11:14:51.688Z,3.70
2022-10-08T11:15:51.976Z,3.30
2022-10-08T11:16:52.770Z,2.30
2022-10-08T11:17:51.866Z,2.80
2022-10-08T11:18:51.458Z,3.40
2022-10-08T11:19:51.738Z,2.30
2022-10-08T11:20:50.818Z,2.80
2022-10-08T11:21:50.860Z,2.60
2022-10-08T11:22:51.470Z,2.70
2022-10-08T11:23:51.701Z,2.30
2022-10-08T11:24:51.430Z,3.10
2022-10-08T11:26:15.406Z,2.50
2022-10-08T11:26:50.829Z,2.60
2022-10-08T11:27:51.590Z,3.10
2022-10-08T11:28:51.488Z,3.20
2022-10-08T11:29:51.607Z,2.80
2022-10-08T11:30:51.546Z,2.40
2022-10-08T11:31:51.642Z,3.10
2022-10-08T11:32:51.521Z,2.70
2022-10-08T11:33:50.690Z,2.00
2022-10-08T11:34:52.821Z,2.70
2022-10-08T11:35:51.730Z,3.10
2022-10-08T11:36:51.660Z,3.00
2022-10-08T11:37:51.459Z,3.00
2022-10-08T11:38:51.760Z,3.10
2022-10-08T11:39:51.369Z,3.20
2022-10-08T11:40:51.399Z,2.90
2022-10-08T11:41:51.390Z,2.70
2022-10-08T11:42:50.988Z,3.10
2022-10-08T11:43:51.378Z,3.30
2022-10-08T11:44:51.761Z,3.50
2022-10-08T11:45:50.606Z,2.90
2022-10-08T11:46:51.410Z,3.00
2022-10-08T11:47:51.861Z,2.40
2022-10-08T11:48:51.929Z,3.80
2022-10-08T11:49:50.829Z,3.80
2022-10-08T11:50:51.970Z,3.00
2022-10-08T11:51:50.594Z,3.50
2022-10-08T11:52:50.820Z,3.10
2022-10-08T11:53:51.699Z,3.40
2022-10-08T11:54:55.284Z,3.30
2022-10-08T11:55:51.831Z,2.80
2022-10-08T11:56:51.129Z,3.30
2022-10-08T11:58:07.094Z,3.00
2022-10-08T11:58:51.129Z,3.10
2022-10-08T11:59:51.707Z,2.60
2022-10-08T12:00:50.399Z,3.40
2022-10-08T12:01:52.381Z,2.60
2022-10-08T12:02:51.017Z,3.30
2022-10-08T12:03:51.239Z,3.80
2022-10-08T12:04:52.150Z,3.30
2022-10-08T12:05:50.969Z,2.70
2022-10-08T12:06:50.341Z,3.00
2022-10-08T12:07:51.019Z,2.80
2022-10-08T12:08:50.329Z,3.40
2022-10-08T12:09:51.157Z,3.10
2022-10-08T12:10:51.140Z,3.20
2022-10-08T12:11:50.971Z,2.30
2022-10-08T12:12:51.411Z,3.10
2022-10-08T12:13:50.352Z,2.50
2022-10-08T12:14:52.340Z,2.20
2022-10-08T12:15:52.073Z,2.40
2022-10-08T12:16:51.059Z,4.00
2022-10-08T12:17:50.221Z,2.80
2022-10-08T12:18:52.249Z,2.80
2022-10-08T12:19:51.138Z,2.90
2022-10-08T12:20:50.530Z,3.20
2022-10-08T12:21:51.970Z,3.10
2022-10-08T12:22:50.405Z,2.40
2022-10-08T12:23:50.960Z,3.20
2022-10-08T12:24:50.906Z,3.40
2022-10-08T12:25:51.060Z,3.50
2022-10-08T12:26:50.829Z,3.50
2022-10-08T12:27:50.970Z,2.50
2022-10-08T12:28:50.887Z,2.80
2022-10-08T12:29:50.153Z,3.00
2022-10-08T12:30:51.459Z,2.90
2022-10-08T12:31:50.969Z,3.40
2022-10-08T12:32:50.951Z,3.40
2022-10-08T12:33:50.140Z,2.60
2022-10-08T12:34:51.571Z,2.50
2022-10-08T12:35:50.850Z,2.80
2022-10-08T12:36:50.798Z,2.60
2022-10-08T12:37:50.965Z,3.00
2022-10-08T12:38:50.809Z,2.50
2022-10-08T12:39:50.679Z,2.80
2022-10-08T12:40:50.809Z,3.20
2022-10-08T12:41:50.019Z,2.60
2022-10-08T12:42:50.780Z,3.30
2022-10-08T12:43:50.370Z,3.40
2022-10-08T12:44:51.168Z,3.20
2022-10-08T12:45:50.670Z,2.40
2022-10-08T12:46:50.949Z,2.40
2022-10-08T12:47:51.097Z,2.30
2022-10-08T12:48:50.918Z,2.80
2022-10-08T12:49:49.950Z,2.70
2022-10-08T12:50:50.690Z,3.90
2022-10-08T12:51:49.886Z,3.10
2022-10-08T12:52:51.599Z,2.50
2022-10-08T12:53:50.632Z,3.10
2022-10-08T12:54:50.479Z,2.90
2022-10-08T12:55:50.709Z,3.30
2022-10-08T12:56:50.479Z,2.40
2022-10-08T12:57:51.111Z,2.10
2022-10-08T12:58:50.490Z,2.20
2022-10-08T12:59:50.590Z,2.50
2022-10-08T13:00:50.529Z,2.40
2022-10-08T13:01:49.818Z,2.00
2022-10-08T13:02:49.860Z,2.70
2022-10-08T13:03:51.158Z,2.80
2022-10-08T13:04:50.500Z,3.00
2022-10-08T13:05:49.762Z,3.30
2022-10-08T13:06:50.481Z,4.40
2022-10-08T13:07:50.155Z,3.20
2022-10-08T13:08:51.260Z,2.80
2022-10-08T13:09:50.309Z,3.10
2022-10-08T13:10:50.550Z,2.90
2022-10-08T13:11:55.487Z,3.50
2022-10-08T13:12:51.470Z,2.70
2022-10-08T13:13:49.648Z,2.50
2022-10-08T13:14:50.599Z,3.00
2022-10-08T13:15:50.746Z,2.80
2022-10-08T13:16:49.629Z,2.50
2022-10-08T13:17:50.672Z,3.10
2022-10-08T13:18:50.518Z,2.70